createdAt,value
2019-05-13T00:00:05.759Z,60.30
2019-05-13T00:01:07.602Z,60.30
2019-05-13T00:02:08.415Z,60.30
2019-05-13T00:03:05.328Z,60.10
2019-05-13T00:04:05.425Z,60.30
2019-05-13T00:05:06.084Z,60.50
2019-05-13T00:06:05.246Z,60.50
2019-05-13T00:07:05.453Z,60.70
2019-05-13T00:08:05.581Z,60.90
2019-05-13T00:09:08.150Z,61.10
2019-05-13T00:10:05.083Z,61.20
2019-05-13T00:11:05.203Z,61.00
2019-05-13T00:12:05.412Z,61.10
2019-05-13T00:13:10.489Z,61.20
2019-05-13T00:14:08.386Z,61.40
2019-05-13T00:15:05.289Z,61.40
2019-05-13T00:16:09.218Z,61.40
2019-05-13T00:17:05.141Z,61.40
2019-05-13T00:18:07.827Z,61.60
2019-05-13T00:19:05.721Z,61.60
2019-05-13T00:20:08.313Z,61.50
2019-05-13T00:21:05.472Z,61.50
2019-05-13T00:22:09.509Z,61.40
2019-05-13T00:23:07.952Z,61.50
2019-05-13T00:24:05.996Z,61.60
2019-05-13T00:25:07.696Z,61.40
2019-05-13T00:26:05.770Z,61.40
2019-05-13T00:27:08.399Z,61.20
2019-05-13T00:28:07.878Z,61.20
2019-05-13T00:29:08.331Z,61.10
2019-05-13T00:30:05.328Z,61.10
2019-05-13T00:31:08.071Z,61.00
2019-05-13T00:32:05.327Z,61.00
2019-05-13T00:33:07.892Z,60.90
2019-05-13T00:34:08.329Z,60.90
2019-05-13T00:35:06.257Z,60.90
2019-05-13T00:36:05.268Z,60.90
2019-05-13T00:37:11.809Z,60.90
2019-05-13T00:38:05.268Z,60.90
2019-05-13T00:39:05.402Z,60.90
2019-05-13T00:40:07.953Z,60.80
2019-05-13T00:41:05.984Z,60.80
2019-05-13T00:42:07.782Z,60.90
2019-05-13T00:43:08.294Z,61.20
2019-05-13T00:44:05.243Z,61.20
2019-05-13T00:45:05.607Z,61.20
2019-05-13T00:46:05.688Z,61.10
2019-05-13T00:47:05.728Z,61.10
2019-05-13T00:48:05.786Z,61.10
2019-05-13T00:49:08.398Z,61.20
2019-05-13T00:50:07.842Z,61.80
2019-05-13T00:51:05.855Z,61.80
2019-05-13T00:52:07.490Z,62.10
2019-05-13T00:53:05.432Z,62.10
2019-05-13T00:54:05.435Z,61.90
2019-05-13T00:55:10.541Z,62.00
2019-05-13T00:56:05.545Z,62.00
2019-05-13T00:57:08.105Z,62.20
2019-05-13T00:58:05.133Z,62.20
2019-05-13T00:59:05.299Z,62.20
2019-05-13T01:00:06.233Z,62.20
2019-05-13T01:01:05.241Z,62.40
2019-05-13T01:02:05.301Z,62.50
2019-05-13T01:03:05.338Z,62.60
2019-05-13T01:04:05.395Z,62.60
2019-05-13T01:05:08.153Z,62.20
2019-05-13T01:06:07.591Z,62.30
2019-05-13T01:07:28.451Z,62.30
2019-05-13T01:08:05.582Z,62.80
2019-05-13T01:09:05.402Z,62.20
2019-05-13T01:10:10.593Z,62.30
2019-05-13T01:11:08.202Z,62.70
2019-05-13T01:12:05.160Z,62.70
2019-05-13T01:13:05.466Z,62.70
2019-05-13T01:14:05.535Z,62.40
2019-05-13T01:15:08.292Z,62.80
2019-05-13T01:16:07.785Z,62.70
2019-05-13T01:17:08.300Z,62.20
2019-05-13T01:18:07.733Z,62.60
2019-05-13T01:19:05.691Z,62.60
2019-05-13T01:20:08.266Z,62.60
2019-05-13T01:21:05.271Z,62.40
2019-05-13T01:22:05.469Z,62.70
2019-05-13T01:23:05.575Z,62.70
2019-05-13T01:24:05.735Z,62.20
2019-05-13T01:25:08.267Z,62.40
2019-05-13T01:26:05.169Z,62.40
2019-05-13T01:27:05.190Z,63.00
2019-05-13T01:28:05.282Z,63.20
2019-05-13T01:29:05.490Z,63.30
2019-05-13T01:30:10.628Z,63.30
2019-05-13T01:31:05.548Z,63.30
2019-05-13T01:32:14.792Z,62.90
2019-05-13T01:33:05.749Z,62.80
2019-05-13T01:34:05.993Z,62.90
2019-05-13T01:35:05.103Z,62.90
2019-05-13T01:36:05.802Z,62.70
2019-05-13T01:37:07.962Z,62.70
2019-05-13T01:38:09.058Z,62.60
2019-05-13T01:39:07.609Z,62.60
2019-05-13T01:40:08.945Z,62.60
2019-05-13T01:41:05.979Z,62.50
2019-05-13T01:42:05.073Z,62.60
2019-05-13T01:43:05.102Z,62.70
2019-05-13T01:44:05.150Z,62.70
2019-05-13T01:45:05.221Z,62.80
2019-05-13T01:46:08.091Z,63.40
2019-05-13T01:47:05.083Z,63.30
2019-05-13T01:48:08.232Z,63.30
2019-05-13T01:49:05.483Z,63.10
2019-05-13T01:50:08.214Z,63.60
2019-05-13T01:51:07.704Z,63.60
2019-05-13T01:52:05.591Z,63.60
2019-05-13T01:53:10.677Z,63.70
2019-05-13T01:54:05.589Z,63.70
2019-05-13T01:55:08.188Z,64.00
2019-05-13T01:56:05.050Z,64.00
2019-05-13T01:57:07.775Z,63.50
2019-05-13T01:58:08.241Z,63.50
2019-05-13T01:59:05.346Z,63.50
2019-05-13T02:00:08.053Z,63.90
2019-05-13T02:01:05.539Z,63.90
2019-05-13T02:02:08.284Z,64.00
2019-05-13T02:03:05.359Z,64.00
2019-05-13T02:04:05.387Z,64.00
2019-05-13T02:05:08.047Z,64.00
2019-05-13T02:06:07.464Z,63.90
2019-05-13T02:07:07.828Z,63.90
2019-05-13T02:08:08.283Z,63.90
2019-05-13T02:09:05.256Z,63.80
2019-05-13T02:10:07.881Z,64.10
2019-05-13T02:11:08.311Z,64.10
2019-05-13T02:12:05.521Z,64.10
2019-05-13T02:13:05.612Z,64.20
2019-05-13T02:14:08.220Z,64.20
2019-05-13T02:15:05.235Z,64.10
2019-05-13T02:16:07.901Z,64.30
2019-05-13T02:17:08.508Z,64.30
2019-05-13T02:18:05.418Z,64.20
2019-05-13T02:19:05.621Z,64.20
2019-05-13T02:20:05.992Z,64.30
2019-05-13T02:21:06.067Z,64.00
2019-05-13T02:22:05.160Z,64.30
2019-05-13T02:23:05.199Z,64.00
2019-05-13T02:24:05.328Z,64.40
2019-05-13T02:25:10.533Z,64.40
2019-05-13T02:26:05.434Z,64.40
2019-05-13T02:27:06.831Z,64.50
2019-05-13T02:28:10.648Z,64.60
2019-05-13T02:29:05.851Z,64.60
2019-05-13T02:30:06.193Z,64.60
2019-05-13T02:31:05.275Z,64.80
2019-05-13T02:32:07.870Z,64.80
2019-05-13T02:33:13.651Z,64.80
2019-05-13T02:34:05.532Z,64.90
2019-05-13T02:35:08.268Z,65.00
2019-05-13T02:36:05.239Z,65.00
2019-05-13T02:37:05.414Z,64.90
2019-05-13T02:38:28.475Z,64.90
2019-05-13T02:39:08.455Z,64.90
2019-05-13T02:40:05.414Z,64.80
2019-05-13T02:41:05.519Z,64.80
2019-05-13T02:42:05.342Z,64.70
2019-05-13T02:43:05.472Z,64.60
2019-05-13T02:44:05.604Z,64.70
2019-05-13T02:45:08.106Z,65.00
2019-05-13T02:46:05.117Z,65.00
2019-05-13T02:47:07.813Z,65.40
2019-05-13T02:48:05.846Z,65.20
2019-05-13T02:49:08.536Z,65.50
2019-05-13T02:50:05.827Z,65.50
2019-05-13T02:51:04.987Z,65.10
2019-05-13T02:52:05.143Z,65.10
2019-05-13T02:53:05.399Z,65.10
2019-05-13T02:54:05.434Z,65.10
2019-05-13T02:55:05.558Z,65.10
2019-05-13T02:56:08.229Z,65.00
2019-05-13T02:57:05.314Z,65.00
2019-05-13T02:58:05.411Z,65.10
2019-05-13T02:59:05.544Z,65.10
2019-05-13T03:00:08.158Z,65.10
2019-05-13T03:01:05.062Z,65.10
2019-05-13T03:02:05.142Z,65.00
2019-05-13T03:03:07.714Z,65.10
2019-05-13T03:04:06.416Z,65.10
2019-05-13T03:05:07.887Z,65.40
2019-05-13T03:06:09.228Z,65.40
2019-05-13T03:07:07.786Z,65.50
2019-05-13T03:08:05.747Z,65.50
2019-05-13T03:09:05.868Z,65.50
2019-05-13T03:10:06.038Z,65.50
2019-05-13T03:11:13.017Z,65.50
2019-05-13T03:12:05.220Z,65.50
2019-05-13T03:13:07.502Z,65.60
2019-05-13T03:14:05.632Z,65.50
2019-05-13T03:15:05.716Z,65.50
2019-05-13T03:16:05.804Z,65.60
2019-05-13T03:17:08.580Z,65.60
2019-05-13T03:18:08.209Z,65.60
2019-05-13T03:19:05.242Z,65.70
2019-05-13T03:20:16.626Z,65.80
2019-05-13T03:21:05.951Z,65.70
2019-05-13T03:22:07.694Z,65.80
2019-05-13T03:23:06.950Z,65.80
2019-05-13T03:24:07.690Z,65.80
2019-05-13T03:25:08.317Z,65.80
2019-05-13T03:26:07.580Z,65.80
2019-05-13T03:27:05.754Z,65.80
2019-05-13T03:28:13.673Z,65.80
2019-05-13T03:29:05.693Z,65.80
2019-05-13T03:30:05.867Z,66.10
2019-05-13T03:31:08.050Z,66.10
2019-05-13T03:32:08.491Z,66.40
2019-05-13T03:33:17.889Z,66.50
2019-05-13T03:34:07.860Z,66.40
2019-05-13T03:35:08.771Z,66.50
2019-05-13T03:36:08.498Z,66.40
2019-05-13T03:37:08.378Z,66.50
2019-05-13T03:38:15.917Z,66.00
2019-05-13T03:39:15.510Z,66.00
2019-05-13T03:40:06.235Z,66.00
2019-05-13T03:41:07.987Z,66.10
2019-05-13T03:42:05.101Z,66.00
2019-05-13T03:43:05.215Z,66.10
2019-05-13T03:44:14.031Z,66.20
2019-05-13T03:45:09.197Z,66.50
2019-05-13T03:46:07.830Z,66.30
2019-05-13T03:47:13.058Z,66.20
2019-05-13T03:48:05.265Z,66.20
2019-05-13T03:49:08.002Z,66.40
2019-05-13T03:50:05.058Z,66.40
2019-05-13T03:51:05.194Z,66.50
2019-05-13T03:52:06.513Z,66.60
2019-05-13T03:53:05.812Z,66.60
2019-05-13T03:54:06.100Z,66.50
2019-05-13T03:55:06.103Z,66.50
2019-05-13T03:56:05.309Z,66.80
2019-05-13T03:57:05.489Z,66.80
2019-05-13T03:58:05.681Z,66.80
2019-05-13T03:59:05.856Z,67.20
2019-05-13T04:00:05.362Z,67.30
2019-05-13T04:01:07.961Z,67.30
2019-05-13T04:02:05.820Z,67.30
2019-05-13T04:03:08.631Z,67.30
2019-05-13T04:04:08.142Z,67.00
2019-05-13T04:05:05.328Z,67.00
2019-05-13T04:06:08.054Z,67.00
2019-05-13T04:07:05.318Z,67.00
2019-05-13T04:08:07.962Z,67.20
2019-05-13T04:09:30.807Z,67.20
2019-05-13T04:10:08.052Z,68.10
2019-05-13T04:11:07.558Z,68.40
2019-05-13T04:12:08.038Z,68.80
2019-05-13T04:13:07.472Z,68.80
2019-05-13T04:14:05.468Z,68.80
2019-05-13T04:15:08.267Z,68.60
2019-05-13T04:16:07.828Z,68.50
2019-05-13T04:17:08.423Z,68.50
2019-05-13T04:18:05.317Z,68.50
2019-05-13T04:19:05.474Z,68.30
2019-05-13T04:20:08.135Z,67.90
2019-05-13T04:21:13.686Z,67.60
2019-05-13T04:22:05.932Z,67.60
2019-05-13T04:23:05.017Z,67.40
2019-05-13T04:24:05.184Z,67.00
2019-05-13T04:25:08.292Z,66.10
2019-05-13T04:26:05.306Z,66.10
2019-05-13T04:27:07.978Z,65.20
2019-05-13T04:28:07.479Z,65.00
2019-05-13T04:29:07.937Z,64.70
2019-05-13T04:30:08.613Z,64.30
2019-05-13T04:31:05.673Z,64.30
2019-05-13T04:32:05.826Z,64.00
2019-05-13T04:33:05.871Z,63.50
2019-05-13T04:34:05.130Z,63.20
2019-05-13T04:35:12.801Z,61.90
2019-05-13T04:36:14.035Z,61.40
2019-05-13T04:37:08.038Z,61.10
2019-05-13T04:38:12.968Z,61.10
2019-05-13T04:39:13.384Z,60.00
2019-05-13T04:40:13.170Z,59.50
2019-05-13T04:41:12.490Z,58.60
2019-05-13T04:42:08.112Z,58.20
2019-05-13T04:43:07.590Z,57.80
2019-05-13T04:44:05.743Z,57.80
2019-05-13T04:45:05.245Z,57.20
2019-05-13T04:46:05.413Z,56.80
2019-05-13T04:47:05.686Z,56.40
2019-05-13T04:48:05.922Z,56.00
2019-05-13T04:49:04.978Z,55.80
2019-05-13T04:50:05.089Z,55.40
2019-05-13T04:51:05.169Z,55.00
2019-05-13T04:52:13.672Z,54.20
2019-05-13T04:53:08.195Z,53.90
2019-05-13T04:54:07.689Z,53.50
2019-05-13T04:55:08.257Z,53.00
2019-05-13T04:56:07.709Z,52.70
2019-05-13T04:57:05.866Z,52.70
2019-05-13T04:58:05.059Z,52.20
2019-05-13T04:59:05.234Z,51.80
2019-05-13T05:00:05.535Z,51.40
2019-05-13T05:01:13.831Z,51.20
2019-05-13T05:02:05.751Z,50.70
2019-05-13T05:03:08.361Z,50.00
2019-05-13T05:05:08.110Z,49.50
2019-05-13T05:06:07.676Z,49.10
2019-05-13T05:07:05.573Z,49.10
2019-05-13T05:08:05.669Z,48.80
2019-05-13T05:09:08.379Z,48.20
2019-05-13T05:10:30.071Z,47.60
2019-05-13T05:11:05.016Z,47.60
2019-05-13T05:12:05.284Z,47.10
2019-05-13T05:13:13.082Z,46.50
2019-05-13T05:14:12.748Z,46.50
2019-05-13T05:15:08.502Z,46.40
2019-05-13T05:16:08.120Z,46.20
2019-05-13T05:17:05.181Z,46.10
2019-05-13T05:18:07.855Z,45.20
2019-05-13T05:19:08.436Z,45.10
2019-05-13T05:20:06.725Z,45.10
2019-05-13T05:21:08.357Z,44.70
2019-05-13T05:22:07.826Z,44.90
2019-05-13T05:23:08.440Z,44.10
2019-05-13T05:24:07.912Z,43.90
2019-05-13T05:25:08.377Z,43.60
2019-05-13T05:26:05.409Z,43.60
2019-05-13T05:27:05.541Z,43.50
2019-05-13T05:28:08.389Z,43.20
2019-05-13T05:29:05.179Z,43.20
2019-05-13T05:30:05.318Z,42.50
2019-05-13T05:31:05.457Z,42.80
2019-05-13T05:32:12.713Z,42.70
2019-05-13T05:33:08.310Z,42.50
2019-05-13T05:34:07.148Z,42.60
2019-05-13T05:35:05.367Z,42.60
2019-05-13T05:36:08.052Z,41.30
2019-05-13T05:37:04.985Z,41.30
2019-05-13T05:38:05.163Z,39.90
2019-05-13T05:39:05.328Z,40.50
2019-05-13T05:40:05.774Z,40.60
2019-05-13T05:41:08.434Z,40.30
2019-05-13T05:42:07.978Z,40.10
2019-05-13T05:43:05.986Z,40.00
2019-05-13T05:44:05.089Z,39.90
2019-05-13T05:45:08.237Z,39.40
2019-05-13T05:46:07.953Z,39.10
2019-05-13T05:47:04.965Z,39.20
2019-05-13T05:48:05.494Z,39.20
2019-05-13T05:49:05.929Z,38.50
2019-05-13T05:50:05.009Z,38.80
2019-05-13T05:51:05.042Z,38.70
2019-05-13T05:52:05.119Z,37.70
2019-05-13T05:53:05.320Z,37.90
2019-05-13T05:54:15.073Z,38.00
2019-05-13T05:55:08.207Z,37.80
2019-05-13T05:56:07.652Z,37.70
2019-05-13T05:57:08.294Z,37.20
2019-05-13T05:58:05.318Z,37.20
2019-05-13T05:59:05.385Z,37.30
2019-05-13T06:00:05.546Z,37.10
2019-05-13T06:01:05.639Z,37.40
2019-05-13T06:02:05.184Z,37.10
2019-05-13T06:03:05.367Z,37.20
2019-05-13T06:04:05.573Z,37.00
2019-05-13T06:05:05.675Z,36.50
2019-05-13T06:06:07.930Z,36.40
2019-05-13T06:07:05.913Z,36.40
2019-05-13T06:08:05.833Z,36.50
2019-05-13T06:09:05.930Z,36.10
2019-05-13T06:10:07.608Z,35.50
2019-05-13T06:11:05.670Z,35.40
2019-05-13T06:12:05.758Z,35.20
2019-05-13T06:13:08.456Z,35.30
2019-05-13T06:14:11.736Z,35.50
2019-05-13T06:15:08.300Z,35.30
2019-05-13T06:16:05.225Z,35.20
2019-05-13T06:17:05.668Z,34.00
2019-05-13T06:18:12.091Z,34.00
2019-05-13T06:19:07.692Z,34.20
2019-05-13T06:20:05.794Z,34.30
2019-05-13T06:21:06.023Z,34.40
2019-05-13T06:22:05.132Z,34.40
2019-05-13T06:23:07.863Z,34.80
2019-05-13T06:24:12.065Z,34.60
2019-05-13T06:25:14.927Z,35.00
2019-05-13T06:26:05.043Z,35.00
2019-05-13T06:27:07.940Z,35.40
2019-05-13T06:28:08.527Z,35.30
2019-05-13T06:29:05.447Z,35.20
2019-05-13T06:30:05.527Z,34.20
2019-05-13T06:31:08.156Z,34.50
2019-05-13T06:32:22.193Z,34.50
2019-05-13T06:33:05.723Z,34.50
2019-05-13T06:34:05.829Z,34.20
2019-05-13T06:35:08.459Z,34.30
2019-05-13T06:36:08.000Z,33.20
2019-05-13T06:37:08.521Z,33.50
2019-05-13T06:38:05.539Z,33.50
2019-05-13T06:39:05.602Z,33.40
2019-05-13T06:40:05.727Z,33.80
2019-05-13T06:41:14.866Z,33.90
2019-05-13T06:42:05.139Z,33.90
2019-05-13T06:43:07.906Z,33.50
2019-05-13T06:44:08.551Z,33.90
2019-05-13T06:45:05.371Z,34.00
2019-05-13T06:46:05.482Z,34.20
2019-05-13T06:47:13.461Z,33.70
2019-05-13T06:48:05.559Z,33.70
2019-05-13T06:49:05.540Z,33.90
2019-05-13T06:50:05.637Z,34.20
2019-05-13T06:51:05.897Z,34.20
2019-05-13T06:52:07.572Z,33.40
2019-05-13T06:53:08.791Z,33.40
2019-05-13T06:54:08.423Z,33.50
2019-05-13T06:55:05.597Z,33.50
2019-05-13T06:56:05.121Z,34.30
2019-05-13T06:57:06.590Z,33.90
2019-05-13T06:58:05.814Z,34.00
2019-05-13T06:59:08.353Z,34.60
2019-05-13T07:00:05.520Z,34.60
2019-05-13T07:01:08.234Z,34.50
2019-05-13T07:02:07.898Z,33.60
2019-05-13T07:03:05.939Z,33.60
2019-05-13T07:04:07.593Z,33.50
2019-05-13T07:05:08.210Z,33.60
2019-05-13T07:06:05.251Z,33.60
2019-05-13T07:07:17.193Z,33.60
2019-05-13T07:08:12.426Z,32.50
2019-05-13T07:09:08.000Z,32.70
2019-05-13T07:10:07.583Z,33.00
2019-05-13T07:11:21.573Z,33.10
2019-05-13T07:12:05.197Z,33.80
2019-05-13T07:13:07.885Z,33.90
2019-05-13T07:14:13.118Z,33.90
2019-05-13T07:15:05.053Z,33.90
2019-05-13T07:16:12.291Z,34.00
2019-05-13T07:17:05.273Z,33.90
2019-05-13T07:18:05.337Z,34.70
2019-05-13T07:19:07.974Z,35.20
2019-05-13T07:20:05.978Z,35.20
2019-05-13T07:21:05.116Z,35.50
2019-05-13T07:22:11.975Z,34.10
2019-05-13T07:23:07.497Z,34.00
2019-05-13T07:24:05.552Z,34.00
2019-05-13T07:25:05.769Z,34.30
2019-05-13T07:26:05.874Z,33.20
2019-05-13T07:27:07.883Z,34.00
2019-05-13T07:28:08.407Z,33.80
2019-05-13T07:29:06.761Z,33.80
2019-05-13T07:30:05.129Z,33.30
2019-05-13T07:31:11.941Z,33.00
2019-05-13T07:32:06.049Z,33.00
2019-05-13T07:33:05.219Z,33.30
2019-05-13T07:34:07.935Z,33.30
2019-05-13T07:35:08.452Z,33.20
2019-05-13T07:36:13.132Z,33.90
2019-05-13T07:37:05.129Z,34.00
2019-05-13T07:38:05.203Z,34.40
2019-05-13T07:39:05.402Z,34.30
2019-05-13T07:40:05.561Z,34.30
2019-05-13T07:41:08.102Z,34.10
2019-05-13T07:42:06.395Z,34.20
2019-05-13T07:43:05.578Z,33.80
2019-05-13T07:44:05.661Z,34.30
2019-05-13T07:45:05.167Z,35.10
2019-05-13T07:46:12.887Z,34.40
2019-05-13T07:47:08.450Z,34.10
2019-05-13T07:48:27.431Z,34.10
2019-05-13T07:49:12.407Z,34.20
2019-05-13T07:50:07.975Z,35.00
2019-05-13T07:51:05.950Z,35.00
2019-05-13T07:52:05.057Z,35.30
2019-05-13T07:53:19.142Z,35.70
2019-05-13T07:54:05.345Z,35.70
2019-05-13T07:55:05.641Z,35.30
2019-05-13T07:56:05.810Z,35.90
2019-05-13T07:57:05.914Z,34.80
2019-05-13T07:58:05.082Z,34.60
2019-05-13T07:59:08.968Z,34.80
2019-05-13T08:00:04.950Z,34.70
2019-05-13T08:01:05.214Z,35.40
2019-05-13T08:02:12.827Z,35.50
2019-05-13T08:03:05.854Z,35.60
2019-05-13T08:04:26.243Z,35.80
2019-05-13T08:05:05.523Z,35.70
2019-05-13T08:06:05.622Z,35.20
2019-05-13T08:07:08.252Z,34.40
2019-05-13T08:08:05.294Z,34.30
2019-05-13T08:09:05.491Z,34.50
2019-05-13T08:10:08.132Z,34.60
2019-05-13T08:11:12.592Z,34.30
2019-05-13T08:12:14.225Z,34.30
2019-05-13T08:13:05.714Z,33.20
2019-05-13T08:14:05.858Z,34.00
2019-05-13T08:15:05.036Z,33.90
2019-05-13T08:16:05.090Z,32.60
2019-05-13T08:17:12.055Z,34.20
2019-05-13T08:18:05.316Z,34.20
2019-05-13T08:19:05.468Z,34.40
2019-05-13T08:20:08.395Z,34.50
2019-05-13T08:21:05.420Z,34.50
2019-05-13T08:22:05.466Z,34.40
2019-05-13T08:23:05.850Z,34.30
2019-05-13T08:24:12.396Z,34.10
2019-05-13T08:25:07.906Z,34.10
2019-05-13T08:26:08.359Z,34.20
2019-05-13T08:27:05.269Z,34.10
2019-05-13T08:28:07.986Z,33.60
2019-05-13T08:29:06.534Z,33.60
2019-05-13T08:30:05.828Z,34.50
2019-05-13T08:31:04.973Z,34.40
2019-05-13T08:32:05.123Z,35.00
2019-05-13T08:33:07.766Z,35.10
2019-05-13T08:34:13.277Z,34.70
2019-05-13T08:35:12.295Z,34.70
2019-05-13T08:36:05.500Z,34.50
2019-05-13T08:37:08.118Z,35.20
2019-05-13T08:38:05.120Z,35.40
2019-05-13T08:39:05.614Z,35.20
2019-05-13T08:40:06.069Z,34.40
2019-05-13T08:41:18.768Z,34.80
2019-05-13T08:42:19.528Z,35.10
2019-05-13T08:43:07.178Z,35.50
2019-05-13T08:44:05.277Z,36.00
2019-05-13T08:45:05.508Z,36.10
2019-05-13T08:46:05.756Z,37.30
2019-05-13T08:47:08.458Z,36.10
2019-05-13T08:48:07.937Z,35.60
2019-05-13T08:49:05.911Z,35.60
2019-05-13T08:50:05.179Z,34.80
2019-05-13T08:51:05.520Z,33.10
2019-05-13T08:52:05.746Z,33.30
2019-05-13T08:53:08.411Z,33.20
2019-05-13T08:54:08.080Z,32.70
2019-05-13T08:55:07.587Z,32.70
2019-05-13T08:56:08.077Z,32.30
2019-05-13T08:57:07.769Z,31.90
2019-05-13T08:58:05.713Z,31.90
2019-05-13T08:59:05.807Z,32.40
2019-05-13T09:00:06.221Z,32.00
2019-05-13T09:01:07.997Z,32.90
2019-05-13T09:02:07.419Z,32.90
2019-05-13T09:03:06.714Z,33.30
2019-05-13T09:04:05.824Z,33.70
2019-05-13T09:05:05.210Z,32.90
2019-05-13T09:06:05.348Z,33.60
2019-05-13T09:07:13.345Z,33.30
2019-05-13T09:08:05.437Z,33.30
2019-05-13T09:09:05.649Z,33.50
2019-05-13T09:10:08.435Z,33.80
2019-05-13T09:11:05.458Z,33.80
2019-05-13T09:12:08.235Z,34.00
2019-05-13T09:13:12.464Z,33.50
2019-05-13T09:14:05.524Z,33.50
2019-05-13T09:15:12.294Z,33.20
2019-05-13T09:16:05.281Z,33.20
2019-05-13T09:17:08.046Z,31.10
2019-05-13T09:18:05.083Z,5.40
2019-05-13T09:19:07.761Z,31.00
2019-05-13T09:20:08.277Z,31.50
2019-05-13T09:21:07.756Z,31.50
2019-05-13T09:22:08.223Z,31.50
2019-05-13T09:23:05.257Z,31.50
2019-05-13T09:24:28.961Z,30.80
2019-05-13T09:25:05.186Z,31.10
2019-05-13T09:26:05.249Z,31.50
2019-05-13T09:27:12.443Z,31.70
2019-05-13T09:28:08.021Z,30.50
2019-05-13T09:29:07.585Z,30.60
2019-05-13T09:30:05.552Z,30.60
2019-05-13T09:31:05.729Z,30.90
2019-05-13T09:32:05.831Z,31.10
2019-05-13T09:33:05.923Z,31.10
2019-05-13T09:34:05.021Z,30.90
2019-05-13T09:35:05.247Z,30.00
2019-05-13T09:36:07.983Z,28.50
2019-05-13T09:37:04.965Z,28.50
2019-05-13T09:38:07.692Z,29.30
2019-05-13T09:39:05.710Z,29.30
2019-05-13T09:40:11.848Z,29.40
2019-05-13T09:41:05.868Z,29.40
2019-05-13T09:42:07.448Z,29.80
2019-05-13T09:43:05.421Z,29.80
2019-05-13T09:44:12.773Z,31.00
2019-05-13T09:45:08.295Z,31.30
2019-05-13T09:46:05.316Z,31.20
2019-05-13T09:47:12.922Z,29.20
2019-05-13T09:48:08.453Z,28.80
2019-05-13T09:49:19.979Z,28.80
2019-05-13T09:50:05.345Z,29.50
2019-05-13T09:51:07.997Z,30.30
2019-05-13T09:52:05.936Z,30.40
2019-05-13T09:53:05.132Z,29.20
2019-05-13T09:54:07.812Z,28.60
2019-05-13T09:55:28.355Z,28.60
2019-05-13T09:56:07.480Z,27.60
2019-05-13T09:57:12.710Z,27.40
2019-05-13T09:58:08.386Z,27.90
2019-05-13T09:59:05.371Z,27.90
2019-05-13T10:00:05.435Z,27.90
2019-05-13T10:01:07.930Z,28.30
2019-05-13T10:02:06.073Z,28.20
2019-05-13T10:03:05.768Z,27.70
2019-05-13T10:04:08.564Z,27.70
2019-05-13T10:05:05.608Z,27.70
2019-05-13T10:06:08.327Z,28.40
2019-05-13T10:07:07.856Z,28.60
2019-05-13T10:08:05.972Z,28.60
2019-05-13T10:09:05.080Z,28.40
2019-05-13T10:10:05.247Z,27.60
2019-05-13T10:11:07.934Z,28.00
2019-05-13T10:12:05.956Z,28.00
2019-05-13T10:13:15.525Z,28.60
2019-05-13T10:14:05.833Z,29.70
2019-05-13T10:15:04.944Z,29.30
2019-05-13T10:16:05.030Z,28.90
2019-05-13T10:17:06.888Z,29.20
2019-05-13T10:18:05.060Z,27.90
2019-05-13T10:19:05.114Z,27.90
2019-05-13T10:20:05.465Z,27.60
2019-05-13T10:21:05.805Z,28.30
2019-05-13T10:22:08.454Z,29.40
2019-05-13T10:23:08.143Z,28.70
2019-05-13T10:24:12.991Z,28.80
2019-05-13T10:25:05.117Z,28.80
2019-05-13T10:26:05.320Z,28.60
2019-05-13T10:27:05.460Z,29.20
2019-05-13T10:28:08.234Z,26.60
2019-05-13T10:29:05.586Z,26.50
2019-05-13T10:30:05.867Z,24.60
2019-05-13T10:31:08.262Z,26.00
2019-05-13T10:32:05.560Z,26.00
2019-05-13T10:33:05.854Z,0.60
2019-05-13T10:34:04.956Z,25.60
2019-05-13T10:35:05.005Z,25.60
2019-05-13T10:36:05.096Z,25.60
2019-05-13T10:37:05.382Z,26.00
2019-05-13T10:38:05.476Z,26.30
2019-05-13T10:39:08.246Z,25.50
2019-05-13T10:40:08.024Z,26.90
2019-05-13T10:41:05.237Z,26.90
2019-05-13T10:42:12.902Z,26.30
2019-05-13T10:43:31.267Z,26.90
2019-05-13T10:44:08.411Z,26.00
2019-05-13T10:45:07.972Z,26.70
2019-05-13T10:46:08.470Z,26.80
2019-05-13T10:47:05.610Z,26.90
2019-05-13T10:48:13.566Z,27.90
2019-05-13T10:49:08.541Z,28.80
2019-05-13T10:50:05.486Z,28.80
2019-05-13T10:51:08.067Z,28.50
2019-05-13T10:52:05.130Z,28.30
2019-05-13T10:53:07.786Z,28.60
2019-05-13T10:54:10.951Z,29.30
2019-05-13T10:55:07.730Z,28.90
2019-05-13T10:56:05.903Z,28.80
2019-05-13T10:57:05.595Z,29.00
2019-05-13T10:58:05.720Z,28.80
2019-05-13T10:59:06.021Z,28.30
2019-05-13T11:00:12.681Z,28.40
2019-05-13T11:01:05.684Z,28.40
2019-05-13T11:02:05.900Z,28.60
2019-05-13T11:03:07.692Z,27.60
2019-05-13T11:04:05.930Z,27.60
2019-05-13T11:05:06.137Z,28.20
2019-05-13T11:06:07.780Z,28.40
2019-05-13T11:07:05.877Z,28.30
2019-05-13T11:08:05.053Z,27.70
2019-05-13T11:09:05.140Z,27.30
2019-05-13T11:10:05.423Z,27.10
2019-05-13T11:11:15.981Z,26.80
2019-05-13T11:12:05.062Z,26.80
2019-05-13T11:13:10.612Z,25.80
2019-05-13T11:14:15.393Z,27.10
2019-05-13T11:15:05.732Z,27.40
2019-05-13T11:16:08.416Z,27.70
2019-05-13T11:17:13.650Z,28.10
2019-05-13T11:18:05.850Z,28.10
2019-05-13T11:19:05.199Z,27.90
2019-05-13T11:20:06.673Z,27.80
2019-05-13T11:21:05.455Z,29.00
2019-05-13T11:22:08.249Z,27.80
2019-05-13T11:23:05.261Z,27.80
2019-05-13T11:24:05.341Z,27.50
2019-05-13T11:25:05.482Z,27.10
2019-05-13T11:26:08.385Z,26.90
2019-05-13T11:27:08.412Z,26.80
2019-05-13T11:28:05.571Z,26.70
2019-05-13T11:29:08.381Z,26.50
2019-05-13T11:30:07.958Z,26.60
2019-05-13T11:31:05.514Z,27.50
2019-05-13T11:32:08.217Z,28.00
2019-05-13T11:33:10.460Z,28.00
2019-05-13T11:34:08.274Z,26.80
2019-05-13T11:35:05.335Z,26.50
2019-05-13T11:36:08.173Z,24.10
2019-05-13T11:37:05.227Z,24.00
2019-05-13T11:38:05.521Z,22.50
2019-05-13T11:39:05.420Z,22.00
2019-05-13T11:40:05.585Z,22.30
2019-05-13T11:41:05.928Z,22.40
2019-05-13T11:42:05.283Z,21.50
2019-05-13T11:43:05.587Z,22.50
2019-05-13T11:44:17.007Z,22.20
2019-05-13T11:45:05.409Z,22.20
2019-05-13T11:46:08.140Z,22.20
2019-05-13T11:47:05.804Z,22.20
2019-05-13T11:48:05.635Z,23.00
2019-05-13T11:49:07.521Z,24.30
2019-05-13T11:50:12.205Z,24.50
2019-05-13T11:51:05.164Z,24.50
2019-05-13T11:52:05.312Z,24.80
2019-05-13T11:53:33.703Z,22.20
2019-05-13T11:54:08.179Z,20.30
2019-05-13T11:55:05.231Z,20.20
2019-05-13T11:56:12.506Z,21.60
2019-05-13T11:57:06.970Z,21.60
2019-05-13T11:58:05.115Z,21.70
2019-05-13T11:59:05.344Z,22.30
2019-05-13T12:00:08.135Z,23.30
2019-05-13T12:01:12.924Z,23.40
2019-05-13T12:02:05.986Z,23.40
2019-05-13T12:03:05.335Z,23.50
2019-05-13T12:04:05.969Z,22.10
2019-05-13T12:05:05.310Z,21.80
2019-05-13T12:06:08.110Z,23.00
2019-05-13T12:07:05.103Z,22.90
2019-05-13T12:08:05.312Z,23.00
2019-05-13T12:09:08.118Z,22.00
2019-05-13T12:10:07.614Z,20.90
2019-05-13T12:11:06.995Z,20.90
2019-05-13T12:12:05.421Z,21.60
2019-05-13T12:13:05.591Z,22.20
2019-05-13T12:14:48.283Z,19.80
2019-05-13T12:15:42.393Z,19.80
2019-05-13T12:16:08.515Z,20.90
2019-05-13T12:17:05.707Z,21.00
2019-05-13T12:18:08.421Z,21.60
2019-05-13T12:19:12.329Z,21.60
2019-05-13T12:20:08.089Z,21.30
2019-05-13T12:21:07.632Z,20.30
2019-05-13T12:22:08.295Z,20.60
2019-05-13T12:23:13.340Z,20.40
2019-05-13T12:24:11.504Z,20.40
2019-05-13T12:25:08.246Z,19.60
2019-05-13T12:26:05.754Z,19.70
2019-05-13T12:27:05.975Z,20.20
2019-05-13T12:28:05.222Z,20.20
2019-05-13T12:29:05.405Z,20.00
2019-05-13T12:30:08.158Z,21.20
2019-05-13T12:31:05.239Z,21.30
2019-05-13T12:32:08.003Z,22.00
2019-05-13T12:33:07.582Z,22.30
2019-05-13T12:34:05.958Z,22.30
2019-05-13T12:35:05.456Z,21.40
2019-05-13T12:36:14.426Z,21.60
2019-05-13T12:37:05.374Z,21.60
2019-05-13T12:38:05.497Z,22.10
2019-05-13T12:39:05.575Z,22.50
2019-05-13T12:40:08.347Z,22.80
2019-05-13T12:41:06.020Z,22.80
2019-05-13T12:42:05.384Z,23.00
2019-05-13T12:43:08.421Z,22.80
2019-05-13T12:44:05.457Z,22.80
2019-05-13T12:45:14.049Z,24.30
2019-05-13T12:46:07.994Z,23.30
2019-05-13T12:47:07.707Z,22.60
2019-05-13T12:48:05.795Z,22.60
2019-05-13T12:49:05.952Z,23.40
2019-05-13T12:50:05.327Z,24.20
2019-05-13T12:51:05.477Z,24.20
2019-05-13T12:52:13.698Z,25.50
2019-05-13T12:53:13.323Z,24.20